Alcester, SD (57001)

12:35 AM CDT on August 18, 2019 (GMT -0500)
Buck 2 | | Change Station
Active Advisory: Severe Thunderstorm Watch

Elev 1339 ft 43.03 °N, 96.71 °W | Updated 7 minutes ago

Rain
Rain
61.9 °F
Feels Like 61.9 °F
N
5
Wind Variable Wind from East
Gusts 9.0 mph

Today
High -- | Low -- °F
--% Chance of Precip.
Yesterday
High -- | Low -- °F
Precip. -- in
Pressure 29.76 in
Visibility 0.5 miles
Clouds Overcast 400 ft
Dew Point 44 °F
Humidity 53%
Rainfall 0.03 in
Snow Depth Not available.
6:35 AM 8:24 PM
Waning Gibbous, 93% visible
METAR KLRJ 180515Z AUTO VRB08G20KT 1/2SM +RA OVC004 17/17 A2976 RMK AO2
Pressure 29.76 in
Visibility 0.5 miles
Clouds Overcast 400 ft
Dew Point 44 °F
Humidity 53%
Rainfall 0.03 in
Snow Depth Not available.
6:35 AM 8:24 PM
Waning Gibbous, 93% visible
METAR KLRJ 180515Z AUTO VRB08G20KT 1/2SM +RA OVC004 17/17 A2976 RMK AO2

Get Your Daily Forecast Email!

Thanks for signing up!

Be on the lookout for a verification email in your inbox.

You'll start receiving severe weather alerts in your inbox..

×

10-Day Weather Forecast

Almanac

Astronomy

Aug. 18, 2019 Rise Set
Actual Time
Civil Twilight
Nautical Twilight
Astronomical Twilight
Moon
Length of Visible Light
Length of Day
Tomorrow will be .
, % of the Moon is Illuminated

Today's Extremes

State Highs State Lows

Community

WunderPhotos

Category 6

Welcome to Category 6. This is the collective home for Weather Underground's featured writeups by Dr. Jeff Masters (right), Bob Henson (left), Chris Burt, and other regular contributors.

Nearby

Air Quality

  Air Quality AQ Index Pollutant
Not available.

Snow Depth

Station Depth Elevation

Earthquake Activity

City Distance Mag. Time & Date
Minimum magnitude displayed is 2.5.

Coastal Water Temperatures

Place Temperature

Stations

Nearby Weather Stations

Station Location Temp. Windchill Dew Point Humidity Wind Precip. Elev Updated Type
                   

Watches & Warnings

Severe Thunderstorm Watch
Issued: 12:23 AM CDT Aug. 18, 2019 – National Weather Service

Severe Thunderstorm Watch 593 remains in effect until 100 am CDT

SD
. South Dakota counties included are

Clay Union Yankton